Rey, Iran
Current Conditions -  °F | °C
As of 1:00 AM on Thursday 29 Jan 2015 (Local Time) from OIII Reporting Station
Broken Clouds Broken Clouds  
Wind Chill: 45°   Ceiling: 10000
Heat Index: 48°   Visibility: 4mi
Dew Point: 34°   Wind: 7mph
Humidity: 57%   Direction: 160°SSE
Pressure: 29.94"   Gusts: NA
Location:  35.6°N, 51.44°E
Report Text: OIII 282200Z 16006KT 7000 FEW040 BKN100 09/01 Q1014 A2995 NOSIG
Loading
Personal Weather Stations






























Interactive Weather Map New forecast layout! Learn more

10-Day Weather Forecast

Advertisements
Track Severe Weather on mobile